Eastpoint, FL (32328)

4:14 PM EDT on April 26, 2015 (GMT -0400)
Franklin County Seafood Workers Task Force Apalachicola Office | | Change Station
CLOSE
Current Station
Personal Weather Station
Location: Apalachicola, FL
Elevation: 43 ft
Nearby Weather Stations
Active Advisory: Flood Warning Active Notice: Record Report

Elev 43 ft 29.73 °N, 85.00 °W | Updated 6 minutes ago

Clear
Clear
86.4 °F
Feels Like 95 °F
N
9.9
Wind Variable Wind from SW

Today
High -- | Low -- °F
--% Chance of Precip.
Yesterday
High -- | Low -- °F
Precip. -- in
7:02 AM 8:13 PM
First Quarter, 58% visible
Pressure 29.73 in
Visibility 10.0 miles
Clouds Few 10000 ft
Heat Index 95 °F
Dew Point 74 °F
Humidity 67%
Rainfall 0.02 in
Snow Depth Not available.
UV 9 out of 12
Pollen 8.20 out of 12
Air Quality Not available.
Flu Activity Local Activity
METAR KAAF 261953Z AUTO 24013KT 10SM FEW100 30/22 A2973 RMK AO2 SLP066 T03000222 $

More Conditions Fewer Conditions

Pressure 29.73 in
Visibility 10.0 miles
Clouds Few 10000 ft
Heat Index 95 °F
Dew Point 74 °F
Humidity 67%
Rainfall 0.02 in
Snow Depth Not available.
UV 9 out of 12
Pollen 8.20 out of 12
Air Quality Not available.
Flu Activity Local Activity
METAR KAAF 261953Z AUTO 24013KT 10SM FEW100 30/22 A2973 RMK AO2 SLP066 T03000222 $

More Conditions Fewer Conditions

The full scope of the disaster following a powerful 7.8-magnitude earthquake in Nepal may not come into view for days, but global charities are already sending emergency aid. Click to see how you can help.

10-Day Weather Forecast

Almanac

Astronomy

Apr. 26, 2015 Rise Set
Actual Time
Civil Twilight
Nautical Twilight
Astronomical Twilight
Moon
Length of Visible Light
Length of Day
Tomorrow will be .
, % of the Moon is Illuminated

Today's Extremes

State Highs State Lows

Community

WunderPhotos

Upload Photos

1,817,109 photos uploaded!

WunderBlogs® & News

Nearby

Air Quality

  Air Quality AQ Index Pollutant
Not available.

Snow Depth

Station Depth Elevation

Earthquake Activity

City Distance Mag. Time & Date
Minimum magnitude displayed is 2.5.

Coastal Water Temperatures

Place Temperature

Stations

Nearby Weather Stations

Station Location Temp. Windchill Dew Point Humidity Wind Precip. Elev Updated Type
                   
Flood Warning
Statement as of 9:17 PM CDT on April 25, 2015

The Flood Warning continues for
the Apalachicola River near Blountstown.
* Until Monday morning.
* At 8:15 PM Saturday the stage was 16.5 feet.
* Minor flooding is occurring and minor flooding is forecast.
* Flood stage is 15.0 feet.
* Forecast: the river will continue to fall to below flood stage by
early Monday morning.
* Impact: at 15.0 feet: minor lowland flooding begins. This level is
the top of the bank at the Marina.


Lat... Lon 3061 8498 3007 8520 2972 8505 2980 8490 3009 8508 3061 8490